Time;durP1;ratioP1;P1;durP2;ratioP2;P2;SDS_P1;SDS_P2;PMS_P1;PMS_P2;Temp;Humidity;BMP_temperature;BMP_pressure;BME280_temperature;BME280_humidity;BME280_pressure;Samples;Min_cycle;Max_cycle;Signal;HPM_P1;HPM_P2
2022/04/10 00:01:13;;;;;;;10.80;5.60;;;4.70;99.90;;;;;;5034353;28;20589;-69
2022/04/10 00:03:39;;;;;;;7.87;5.43;;;4.70;99.90;;;;;;5028928;28;20217;-70
2022/04/10 00:06:04;;;;;;;9.30;4.70;;;5.00;99.90;;;;;;5027812;28;20197;-70
2022/04/10 00:08:30;;;;;;;10.17;4.73;;;4.50;99.90;;;;;;5029140;28;20176;-70
2022/04/10 00:10:55;;;;;;;7.60;5.17;;;4.40;99.90;;;;;;5025734;28;20201;-70
2022/04/10 00:13:21;;;;;;;6.90;4.93;;;4.30;99.90;;;;;;5014041;28;20273;-71
2022/04/10 00:15:46;;;;;;;8.80;5.20;;;4.20;99.90;;;;;;5027222;28;20299;-71
2022/04/10 00:18:12;;;;;;;8.70;5.23;;;4.20;99.90;;;;;;5042034;28;20169;-70
2022/04/10 00:20:37;;;;;;;6.80;4.60;;;4.10;99.90;;;;;;5039620;28;20228;-69
2022/04/10 00:23:04;;;;;;;11.13;4.60;;;4.40;99.90;;;;;;5028703;28;20617;-70
2022/04/10 00:25:29;;;;;;;10.53;4.80;;;4.10;99.90;;;;;;5009918;28;20297;-69
2022/04/10 00:27:55;;;;;;;7.67;4.50;;;4.10;99.90;;;;;;5031581;28;20506;-69
2022/04/10 00:30:20;;;;;;;8.57;4.27;;;4.10;99.90;;;;;;5033755;28;20529;-69
2022/04/10 00:32:46;;;;;;;6.90;4.30;;;4.10;99.90;;;;;;5027206;28;20616;-69
2022/04/10 00:35:12;;;;;;;6.27;4.50;;;4.10;99.90;;;;;;5028052;28;20327;-69
2022/04/10 00:37:39;;;;;;;4.90;4.00;;;4.00;99.90;;;;;;5010565;28;20292;-69
2022/04/10 00:40:07;;;;;;;7.00;4.83;;;3.90;99.90;;;;;;5027517;28;20444;-69
2022/04/10 00:42:40;;;;;;;5.10;4.40;;;3.80;99.90;;;;;;5027551;28;20431;-69
2022/04/10 00:45:08;;;;;;;8.27;4.97;;;3.80;99.90;;;;;;5002144;28;20445;-69
2022/04/10 00:47:34;;;;;;;20.20;5.20;;;3.80;99.90;;;;;;5027983;28;20420;-69
2022/04/10 00:50:04;;;;;;;7.57;5.60;;;3.70;99.90;;;;;;5027881;28;20522;-69
2022/04/10 00:52:30;;;;;;;8.20;4.77;;;3.60;99.90;;;;;;5027455;28;20169;-69
2022/04/10 00:54:56;;;;;;;6.27;4.23;;;4.10;99.90;;;;;;5027479;28;20441;-69
2022/04/10 00:57:23;;;;;;;9.80;4.27;;;3.50;99.90;;;;;;5027862;28;20265;-69
2022/04/10 00:59:49;;;;;;;7.70;4.90;;;3.50;99.90;;;;;;5022449;28;20177;-69
2022/04/10 01:02:15;;;;;;;9.10;5.83;;;3.70;99.90;;;;;;5027366;28;20525;-70
2022/04/10 01:04:41;;;;;;;9.17;5.13;;;3.40;99.90;;;;;;5009946;28;20178;-69
2022/04/10 01:07:07;;;;;;;12.57;5.47;;;3.40;99.90;;;;;;5009764;28;20279;-69
2022/04/10 01:09:33;;;;;;;6.53;4.83;;;3.30;99.90;;;;;;5009819;28;20249;-69
2022/04/10 01:11:59;;;;;;;9.13;5.40;;;3.60;99.90;;;;;;5013781;28;20489;-69
2022/04/10 01:14:25;;;;;;;8.63;5.27;;;3.30;99.90;;;;;;4989946;28;20445;-69
2022/04/10 01:16:51;;;;;;;12.10;5.20;;;3.40;99.90;;;;;;5014783;28;20903;-69
2022/04/10 01:19:18;;;;;;;7.77;5.10;;;3.80;99.90;;;;;;5027435;28;20426;-69
2022/04/10 01:21:46;;;;;;;7.33;5.00;;;3.50;99.90;;;;;;5027354;28;20429;-69
2022/04/10 01:24:12;;;;;;;9.73;5.33;;;3.70;99.90;;;;;;5027633;28;20563;-69
2022/04/10 01:26:39;;;;;;;9.50;5.57;;;3.30;99.90;;;;;;5026279;28;20490;-69
2022/04/10 01:29:07;;;;;;;7.47;4.80;;;3.30;99.90;;;;;;5027141;28;20420;-69
2022/04/10 01:31:35;;;;;;;6.43;4.50;;;3.20;99.90;;;;;;5021913;28;20507;-69
2022/04/10 01:34:03;;;;;;;8.07;5.23;;;3.20;99.90;;;;;;5027041;28;20493;-69
2022/04/10 01:36:30;;;;;;;6.80;4.80;;;3.40;99.90;;;;;;5027385;28;20450;-69
2022/04/10 01:38:58;;;;;;;11.70;5.50;;;3.30;99.90;;;;;;5027708;28;20821;-69
2022/04/10 01:41:25;;;;;;;7.87;5.53;;;2.90;99.90;;;;;;5026438;28;20408;-69
2022/04/10 01:43:52;;;;;;;7.10;5.03;;;2.80;99.90;;;;;;5009651;28;20497;-69
2022/04/10 01:46:18;;;;;;;14.17;5.67;;;2.80;99.90;;;;;;5026705;28;20542;-69
2022/04/10 01:48:44;;;;;;;11.23;5.53;;;2.90;99.90;;;;;;5027278;28;20428;-70
2022/04/10 01:51:10;;;;;;;9.30;5.70;;;2.70;99.90;;;;;;5008877;28;20458;-69
2022/04/10 01:53:35;;;;;;;9.07;6.03;;;2.70;99.90;;;;;;5026839;28;20304;-69
2022/04/10 01:56:02;;;;;;;7.03;5.00;;;2.60;99.90;;;;;;5026721;28;20227;-69
2022/04/10 01:58:29;;;;;;;8.10;4.80;;;2.60;99.90;;;;;;5034663;28;20191;-69
2022/04/10 02:00:54;;;;;;;6.77;4.70;;;2.50;99.90;;;;;;5038149;28;20494;-69
2022/04/10 02:03:20;;;;;;;8.03;5.10;;;2.40;99.90;;;;;;5031839;28;20982;-69
2022/04/10 02:05:45;;;;;;;6.07;5.13;;;2.40;99.90;;;;;;5026196;28;20202;-69
2022/04/10 02:08:11;;;;;;;8.70;5.30;;;2.40;99.90;;;;;;5027262;28;20181;-69
2022/04/10 02:10:37;;;;;;;7.30;4.77;;;2.70;99.90;;;;;;5019186;28;20525;-69
2022/04/10 02:13:03;;;;;;;8.70;4.83;;;2.30;99.90;;;;;;5005529;28;20423;-69
2022/04/10 02:15:28;;;;;;;7.50;5.23;;;2.30;99.90;;;;;;5026012;28;20204;-69
2022/04/10 02:17:54;;;;;;;6.40;5.17;;;2.50;99.90;;;;;;5025626;28;20165;-69
2022/04/10 02:20:19;;;;;;;9.30;5.47;;;2.40;99.90;;;;;;5012285;28;20182;-69
2022/04/10 02:22:45;;;;;;;11.13;5.90;;;2.30;99.90;;;;;;4996738;28;20192;-69
2022/04/10 02:25:10;;;;;;;5.47;4.60;;;2.30;99.90;;;;;;5019807;28;20197;-69
2022/04/10 02:27:36;;;;;;;6.20;4.90;;;2.30;99.90;;;;;;5025885;28;20632;-69
2022/04/10 02:30:02;;;;;;;8.00;4.83;;;2.30;99.90;;;;;;5027235;28;20195;-69
2022/04/10 02:32:29;;;;;;;7.67;4.80;;;2.30;99.90;;;;;;5016047;28;20185;-69
2022/04/10 02:34:54;;;;;;;6.07;4.73;;;2.30;99.90;;;;;;5009548;28;20785;-69
2022/04/10 02:37:20;;;;;;;7.30;5.10;;;2.70;99.90;;;;;;5027050;28;20413;-69
2022/04/10 02:39:45;;;;;;;7.40;4.87;;;2.60;99.90;;;;;;5026851;28;20671;-69
2022/04/10 02:42:11;;;;;;;7.97;5.13;;;2.60;99.90;;;;;;5021171;28;20182;-69
2022/04/10 02:44:38;;;;;;;8.63;5.40;;;2.60;99.90;;;;;;5022793;28;20185;-69
2022/04/10 02:47:04;;;;;;;6.63;4.90;;;2.20;99.90;;;;;;5008346;28;20178;-69
2022/04/10 02:49:29;;;;;;;12.50;5.07;;;2.10;99.90;;;;;;5008662;28;20992;-69
2022/04/10 02:51:55;;;;;;;7.20;5.33;;;2.40;99.90;;;;;;5026424;28;20441;-69
2022/04/10 02:54:20;;;;;;;8.27;4.83;;;2.50;99.90;;;;;;5027374;28;20180;-69
2022/04/10 02:56:46;;;;;;;7.30;4.47;;;2.50;99.90;;;;;;5030505;28;20189;-69
2022/04/10 02:59:11;;;;;;;6.70;4.73;;;2.60;99.90;;;;;;5038408;28;20621;-69
2022/04/10 03:01:37;;;;;;;8.40;5.33;;;2.30;99.90;;;;;;5047554;28;20287;-69
2022/04/10 03:04:03;;;;;;;7.03;4.90;;;2.10;99.90;;;;;;5031342;28;20180;-69
2022/04/10 03:06:28;;;;;;;8.13;4.63;;;2.10;99.90;;;;;;5030251;28;20188;-69
2022/04/10 03:08:54;;;;;;;7.57;5.30;;;2.10;99.90;;;;;;5030805;28;20492;-69
2022/04/10 03:11:19;;;;;;;6.17;5.07;;;2.10;99.90;;;;;;5029470;28;20315;-69
2022/04/10 03:13:45;;;;;;;9.67;5.37;;;2.00;99.90;;;;;;5012242;28;20705;-69
2022/04/10 03:16:11;;;;;;;8.30;5.07;;;2.00;99.90;;;;;;5024508;28;20612;-69
2022/04/10 03:18:37;;;;;;;8.20;4.63;;;2.00;99.90;;;;;;5027595;28;20614;-69
2022/04/10 03:21:03;;;;;;;6.90;5.40;;;1.90;99.90;;;;;;5011691;28;20448;-69
2022/04/10 03:23:29;;;;;;;7.93;5.00;;;1.90;99.90;;;;;;5030005;28;20177;-69
2022/04/10 03:25:54;;;;;;;10.60;5.43;;;1.90;99.90;;;;;;5028541;28;20886;-69
2022/04/10 03:28:20;;;;;;;6.80;4.80;;;2.30;99.90;;;;;;5024496;28;20703;-69
2022/04/10 03:30:45;;;;;;;6.03;4.97;;;2.20;99.90;;;;;;5036882;28;20499;-70
2022/04/10 03:33:12;;;;;;;9.00;5.00;;;1.90;99.90;;;;;;5018212;28;20172;-70
2022/04/10 03:35:38;;;;;;;8.53;5.50;;;1.90;99.90;;;;;;5029967;28;20335;-69
2022/04/10 03:38:03;;;;;;;7.10;4.83;;;1.80;99.90;;;;;;5030455;28;20497;-70
2022/04/10 03:40:29;;;;;;;8.20;4.97;;;1.80;99.90;;;;;;5028631;28;20201;-70
2022/04/10 03:42:55;;;;;;;7.77;4.73;;;1.80;99.90;;;;;;5028990;28;20250;-69
2022/04/10 03:45:20;;;;;;;6.23;4.43;;;2.20;99.90;;;;;;5017281;28;20300;-70
2022/04/10 03:47:49;;;;;;;9.00;5.17;;;1.70;99.90;;;;;;5023060;28;20584;-69
2022/04/10 03:50:15;;;;;;;7.47;5.20;;;1.70;99.90;;;;;;5034235;28;20618;-70
2022/04/10 03:52:40;;;;;;;8.40;4.93;;;1.60;99.90;;;;;;5011566;28;20419;-69
2022/04/10 03:55:06;;;;;;;9.37;5.20;;;2.00;99.90;;;;;;5029602;28;20228;-70
2022/04/10 03:57:31;;;;;;;8.00;4.90;;;1.80;99.90;;;;;;5029569;28;20234;-69
2022/04/10 03:59:57;;;;;;;7.47;4.93;;;1.60;99.90;;;;;;5040489;28;20180;-70
2022/04/10 04:02:23;;;;;;;7.97;4.70;;;1.70;99.90;;;;;;5043329;28;20183;-69
2022/04/10 04:04:51;;;;;;;8.30;5.40;;;1.70;99.90;;;;;;5029086;28;20195;-69
2022/04/10 04:07:17;;;;;;;6.80;4.80;;;1.80;99.90;;;;;;5029166;28;20238;-69
2022/04/10 04:09:43;;;;;;;7.83;5.00;;;1.60;99.90;;;;;;5029308;28;20459;-69
2022/04/10 04:12:09;;;;;;;8.07;5.20;;;1.60;99.90;;;;;;5028711;28;20494;-70
2022/04/10 04:14:35;;;;;;;7.73;5.10;;;1.60;99.90;;;;;;5028624;28;20188;-70
2022/04/10 04:17:01;;;;;;;8.03;5.60;;;1.60;99.90;;;;;;5011352;28;20428;-69
2022/04/10 04:19:26;;;;;;;6.23;4.50;;;2.20;99.90;;;;;;5011075;28;20514;-70
2022/04/10 04:21:52;;;;;;;8.07;5.10;;;1.70;99.90;;;;;;5029114;28;20640;-70
2022/04/10 04:24:17;;;;;;;8.33;5.00;;;1.80;99.90;;;;;;5029041;28;20184;-70
2022/04/10 04:26:43;;;;;;;7.17;5.10;;;2.20;99.90;;;;;;5028963;28;20239;-70
2022/04/10 04:29:08;;;;;;;8.43;4.97;;;2.30;99.90;;;;;;5018137;28;20204;-70
2022/04/10 04:31:34;;;;;;;11.10;5.87;;;1.90;99.90;;;;;;5045387;28;20168;-69
2022/04/10 04:34:00;;;;;;;9.67;5.00;;;1.80;99.90;;;;;;5035951;28;20662;-69
2022/04/10 04:36:25;;;;;;;8.90;5.30;;;2.10;99.90;;;;;;5028773;28;20211;-70
2022/04/10 04:38:52;;;;;;;7.20;4.83;;;2.20;99.90;;;;;;5028388;28;20181;-70
2022/04/10 04:41:18;;;;;;;7.93;5.60;;;1.70;99.90;;;;;;5027780;28;20253;-69
2022/04/10 04:43:44;;;;;;;8.50;5.30;;;1.70;99.90;;;;;;5027980;28;20514;-69
2022/04/10 04:46:09;;;;;;;7.90;5.20;;;1.60;99.90;;;;;;5027558;28;20392;-69
2022/04/10 04:48:35;;;;;;;9.00;5.23;;;2.00;99.90;;;;;;5028023;28;20196;-70
2022/04/10 04:51:02;;;;;;;7.73;5.30;;;1.70;99.90;;;;;;5027939;28;20208;-70
2022/04/10 04:53:28;;;;;;;10.80;6.23;;;1.70;99.90;;;;;;5028791;28;20180;-70
2022/04/10 04:55:53;;;;;;;16.17;7.27;;;2.20;99.90;;;;;;5027359;28;20752;-70
2022/04/10 04:58:19;;;;;;;14.27;7.90;;;1.80;99.90;;;;;;5034431;28;20208;-70
2022/04/10 05:00:45;;;;;;;11.77;6.43;;;1.80;99.90;;;;;;5034689;28;20191;-69
2022/04/10 05:03:11;;;;;;;14.60;7.57;;;2.00;99.90;;;;;;5028065;28;20415;-70
2022/04/10 05:05:36;;;;;;;11.93;6.80;;;2.60;99.90;;;;;;5028209;28;20555;-69
2022/04/10 05:08:03;;;;;;;14.50;6.93;;;2.30;99.90;;;;;;5028258;28;20554;-70
2022/04/10 05:10:29;;;;;;;17.20;8.33;;;2.40;99.90;;;;;;5009990;28;20306;-70
2022/04/10 05:12:54;;;;;;;19.40;8.90;;;2.50;99.90;;;;;;5023102;28;20424;-70
2022/04/10 05:15:20;;;;;;;13.33;7.03;;;2.60;99.90;;;;;;5010512;28;20232;-70
2022/04/10 05:17:45;;;;;;;10.43;6.33;;;3.00;99.90;;;;;;5027047;28;20347;-70
2022/04/10 05:20:11;;;;;;;19.83;9.80;;;3.30;99.90;;;;;;5010145;28;20268;-70
2022/04/10 05:22:36;;;;;;;13.70;7.27;;;2.90;99.90;;;;;;5027910;28;20273;-70
2022/04/10 05:25:02;;;;;;;13.83;8.43;;;3.30;99.90;;;;;;5025380;28;20190;-69
2022/04/10 05:27:28;;;;;;;12.77;7.37;;;3.20;99.90;;;;;;5020992;28;20186;-69
2022/04/10 05:29:53;;;;;;;12.70;7.53;;;3.70;99.90;;;;;;5029372;28;20274;-70
2022/04/10 05:32:19;;;;;;;14.07;7.90;;;3.40;99.90;;;;;;5027869;28;20174;-70
2022/04/10 05:34:45;;;;;;;17.20;7.40;;;3.90;99.90;;;;;;5027765;28;20625;-70
2022/04/10 05:37:10;;;;;;;12.30;7.63;;;4.00;99.90;;;;;;5027685;28;20159;-70
2022/04/10 05:39:38;;;;;;;12.90;6.70;;;3.70;99.90;;;;;;5027426;28;20190;-70
2022/04/10 05:42:04;;;;;;;10.63;7.10;;;4.20;99.90;;;;;;5026102;28;20257;-70
2022/04/10 05:44:29;;;;;;;16.13;7.30;;;3.90;99.90;;;;;;5027580;28;20970;-70
2022/04/10 05:46:55;;;;;;;17.57;8.00;;;4.00;99.90;;;;;;5027571;28;20197;-70
2022/04/10 05:49:20;;;;;;;10.47;6.60;;;4.30;99.90;;;;;;5027003;28;20198;-70
2022/04/10 05:51:47;;;;;;;13.30;6.90;;;4.30;99.90;;;;;;5027094;28;20628;-69
2022/04/10 05:54:14;;;;;;;13.20;7.90;;;4.50;99.90;;;;;;5027676;28;20165;-70
2022/04/10 05:56:39;;;;;;;16.73;9.40;;;4.40;99.90;;;;;;5026874;28;20436;-70
2022/04/10 05:59:05;;;;;;;14.53;8.80;;;4.50;99.90;;;;;;5035342;28;20427;-70
2022/04/10 06:01:30;;;;;;;14.27;8.73;;;4.60;99.90;;;;;;5027068;28;20240;-69
2022/04/10 06:03:56;;;;;;;13.60;7.13;;;4.80;99.90;;;;;;5026812;28;20238;-69
2022/04/10 06:06:22;;;;;;;13.80;7.27;;;4.80;99.90;;;;;;5026059;28;20703;-70
2022/04/10 06:08:47;;;;;;;9.70;5.70;;;4.80;99.90;;;;;;5027350;28;20249;-69
2022/04/10 06:11:13;;;;;;;9.07;6.30;;;4.80;99.90;;;;;;5026696;28;20194;-70
2022/04/10 06:13:38;;;;;;;8.43;6.33;;;4.90;99.90;;;;;;5026806;28;20652;-69
2022/04/10 06:16:04;;;;;;;8.33;6.07;;;4.90;99.90;;;;;;5026669;28;20245;-69
2022/04/10 06:18:29;;;;;;;10.13;5.93;;;5.00;99.90;;;;;;5026766;28;20205;-70
2022/04/10 06:20:55;;;;;;;8.20;6.23;;;5.00;99.90;;;;;;5026715;28;20264;-70
2022/04/10 06:23:23;;;;;;;8.10;5.90;;;4.90;99.90;;;;;;5027089;28;20181;-70
2022/04/10 06:25:49;;;;;;;8.77;5.83;;;5.10;99.90;;;;;;5025966;28;20197;-70
2022/04/10 06:28:14;;;;;;;8.93;6.20;;;5.30;99.90;;;;;;5032595;28;20814;-70
2022/04/10 06:30:40;;;;;;;8.83;6.80;;;5.00;99.90;;;;;;5039537;28;20738;-69
2022/04/10 06:33:06;;;;;;;11.07;6.70;;;5.10;99.90;;;;;;5030613;28;20162;-70
2022/04/10 06:35:31;;;;;;;9.23;6.30;;;5.10;99.90;;;;;;5031173;28;20504;-70
2022/04/10 06:37:57;;;;;;;8.80;6.37;;;5.20;99.90;;;;;;5029928;28;20193;-69
2022/04/10 06:40:22;;;;;;;9.43;6.30;;;5.30;99.90;;;;;;5020917;28;20242;-69
2022/04/10 06:42:48;;;;;;;10.83;6.10;;;5.30;99.90;;;;;;5023005;28;20277;-69
2022/04/10 06:45:13;;;;;;;8.60;6.00;;;5.40;99.90;;;;;;5029932;28;20241;-70
2022/04/10 06:47:39;;;;;;;10.30;6.23;;;5.50;99.90;;;;;;5029724;28;20166;-70
2022/04/10 06:50:05;;;;;;;11.43;5.57;;;5.60;99.90;;;;;;5030597;28;20209;-70
2022/04/10 06:52:30;;;;;;;10.73;5.87;;;5.60;99.90;;;;;;5029844;28;20173;-70
2022/04/10 06:54:56;;;;;;;7.90;5.50;;;5.70;99.90;;;;;;5030250;28;20205;-70
2022/04/10 06:57:21;;;;;;;10.70;7.63;;;5.70;99.90;;;;;;5030825;28;20268;-70
2022/04/10 06:59:47;;;;;;;11.50;8.20;;;5.90;99.90;;;;;;5040431;28;20183;-70
2022/04/10 07:02:12;;;;;;;11.33;6.67;;;6.00;99.90;;;;;;5030670;28;20178;-70
2022/04/10 07:04:39;;;;;;;8.57;6.17;;;6.10;99.90;;;;;;5030008;28;20637;-70
2022/04/10 07:07:04;;;;;;;9.67;6.50;;;6.30;99.90;;;;;;5013411;28;20174;-69
2022/04/10 07:09:30;;;;;;;10.60;7.07;;;6.50;99.90;;;;;;5030675;28;20455;-69
2022/04/10 07:11:56;;;;;;;8.73;6.33;;;6.60;99.90;;;;;;5030322;28;20188;-70
2022/04/10 07:14:21;;;;;;;7.30;5.63;;;6.70;99.90;;;;;;5024124;28;20186;-69
2022/04/10 07:16:47;;;;;;;10.03;6.33;;;6.80;99.90;;;;;;5031103;28;20280;-70
2022/04/10 07:19:12;;;;;;;14.63;5.93;;;6.70;99.90;;;;;;5030504;28;20261;-70
2022/04/10 07:24:22;;;;;;;7.93;5.20;;;6.80;99.90;;;;;;5031091;28;20208;-69
2022/04/10 07:26:49;;;;;;;7.87;5.23;;;6.90;99.90;;;;;;5028233;28;20440;-69
2022/04/10 07:29:14;;;;;;;6.50;4.90;;;7.00;99.90;;;;;;5029957;28;20576;-70
2022/04/10 07:31:40;;;;;;;10.27;5.77;;;7.00;99.90;;;;;;5047645;28;20445;-70
2022/04/10 07:34:06;;;;;;;7.77;5.80;;;7.10;99.90;;;;;;5050438;28;20253;-70
2022/04/10 07:36:32;;;;;;;7.20;5.50;;;7.20;99.90;;;;;;5043301;28;20200;-70
2022/04/10 07:38:58;;;;;;;9.53;5.47;;;7.30;99.90;;;;;;5012448;28;20177;-70
2022/04/10 07:41:24;;;;;;;6.50;4.93;;;7.70;99.90;;;;;;5029828;28;20423;-70
2022/04/10 07:43:50;;;;;;;7.07;5.50;;;7.90;99.90;;;;;;5030751;28;20170;-71
2022/04/10 07:48:59;;;;;;;7.37;4.60;;;8.50;99.90;;;;;;5030275;28;20548;-70
2022/04/10 07:51:26;;;;;;;7.87;5.50;;;8.80;99.90;;;;;;5029847;28;20467;-70
2022/04/10 07:53:54;;;;;;;9.40;5.63;;;9.10;99.90;;;;;;5030861;28;20513;-70
2022/04/10 07:56:21;;;;;;;6.80;5.47;;;9.20;99.90;;;;;;5030116;28;20425;-70
2022/04/10 07:58:46;;;;;;;7.47;5.50;;;9.30;99.90;;;;;;5038766;28;20414;-69
2022/04/10 08:01:11;;;;;;;7.80;5.90;;;9.30;99.90;;;;;;5043071;28;20407;-70
2022/04/10 08:03:37;;;;;;;7.50;5.37;;;9.30;99.90;;;;;;5049902;28;20653;-70
2022/04/10 08:06:03;;;;;;;6.70;5.63;;;9.10;99.90;;;;;;5035351;28;20208;-69
2022/04/10 08:08:28;;;;;;;8.20;6.03;;;8.90;99.90;;;;;;5030193;28;20178;-69
2022/04/10 08:10:54;;;;;;;12.07;6.07;;;8.60;99.90;;;;;;5029011;28;20209;-70
2022/04/10 08:13:20;;;;;;;13.20;6.93;;;8.40;99.90;;;;;;5029702;28;20260;-69
2022/04/10 08:15:46;;;;;;;8.60;5.83;;;8.30;99.90;;;;;;5028769;28;20205;-71
2022/04/10 08:18:11;;;;;;;6.30;4.47;;;8.20;99.90;;;;;;5027645;28;20166;-70
2022/04/10 08:20:37;;;;;;;12.27;5.00;;;8.20;99.90;;;;;;5029526;28;20513;-69
2022/04/10 08:23:03;;;;;;;10.37;5.13;;;8.20;99.90;;;;;;5029811;28;20181;-70
2022/04/10 08:25:28;;;;;;;13.10;5.83;;;8.30;99.90;;;;;;5029868;28;20234;-69
2022/04/10 08:27:55;;;;;;;7.63;5.97;;;8.30;99.90;;;;;;5032308;28;20193;-70
2022/04/10 08:30:21;;;;;;;6.73;5.03;;;8.40;99.90;;;;;;5023161;28;20359;-70
2022/04/10 08:32:47;;;;;;;6.50;4.90;;;8.50;99.90;;;;;;5031071;28;20420;-70
2022/04/10 08:35:13;;;;;;;8.37;4.43;;;8.60;99.90;;;;;;5033479;28;20459;-70
2022/04/10 08:37:39;;;;;;;6.30;4.53;;;8.50;99.90;;;;;;5029594;28;20455;-70
2022/04/10 08:40:07;;;;;;;7.93;4.80;;;8.30;99.90;;;;;;5030013;28;20791;-70
2022/04/10 08:42:32;;;;;;;10.60;5.07;;;8.10;99.90;;;;;;5020865;28;20421;-70
2022/04/10 08:44:58;;;;;;;8.63;4.60;;;8.10;99.90;;;;;;5009587;28;20831;-70
2022/04/10 08:47:25;;;;;;;5.30;4.20;;;8.50;99.90;;;;;;5014286;28;20187;-69
2022/04/10 08:49:52;;;;;;;7.33;4.87;;;8.80;99.90;;;;;;5011737;28;20607;-70
2022/04/10 08:52:19;;;;;;;7.03;4.73;;;9.10;99.90;;;;;;5028311;28;20510;-70
2022/04/10 08:54:46;;;;;;;8.70;5.00;;;9.30;99.90;;;;;;5010823;28;20468;-70
2022/04/10 08:57:12;;;;;;;10.13;5.40;;;9.40;99.90;;;;;;5028442;28;20416;-70
2022/04/10 08:59:38;;;;;;;7.10;5.00;;;9.50;99.90;;;;;;5034867;28;20434;-70
2022/04/10 09:02:04;;;;;;;6.40;4.90;;;9.60;99.90;;;;;;5035511;28;20466;-70
2022/04/10 09:04:31;;;;;;;5.93;5.07;;;8.90;99.90;;;;;;5029304;28;20483;-70
2022/04/10 09:07:05;;;;;;;7.13;4.90;;;9.90;99.90;;;;;;5029704;28;20420;-70
2022/04/10 09:09:31;;;;;;;7.73;4.70;;;10.60;99.90;;;;;;5017868;28;20518;-71
2022/04/10 09:11:58;;;;;;;7.00;5.03;;;11.80;99.90;;;;;;5028000;28;20471;-68
2022/04/10 09:14:25;;;;;;;8.23;5.37;;;12.40;99.90;;;;;;5028481;28;20471;-71
2022/04/10 09:17:19;;;;;;;9.17;4.60;;;12.30;99.90;;;;;;5029139;28;20443;-72
2022/04/10 09:19:47;;;;;;;9.13;4.90;;;11.90;99.90;;;;;;5009275;28;20545;-71
2022/04/10 09:22:28;;;;;;;7.17;4.90;;;12.00;99.90;;;;;;5009244;28;20834;-71
2022/04/10 09:25:07;;;;;;;7.30;4.83;;;11.70;99.90;;;;;;5008878;28;20539;-72
2022/04/10 09:27:35;;;;;;;6.90;5.10;;;11.50;99.90;;;;;;5022006;28;20439;-71
2022/04/10 09:30:01;;;;;;;6.73;4.73;;;11.60;99.90;;;;;;5029895;28;20941;-69
2022/04/10 09:32:47;;;;;;;12.60;5.43;;;12.80;99.90;;;;;;5047913;28;20423;-69
2022/04/10 09:35:18;;;;;;;9.77;5.13;;;13.90;99.90;;;;;;5048637;28;20461;-70
2022/04/10 09:37:49;;;;;;;9.40;5.30;;;14.80;99.90;;;;;;5042993;28;20416;-70
2022/04/10 09:40:25;;;;;;;7.53;5.20;;;15.30;99.90;;;;;;5028531;28;20473;-70
2022/04/10 09:43:04;;;;;;;9.00;5.10;;;15.70;99.70;;;;;;5028163;28;20825;-70
2022/04/10 09:45:39;;;;;;;10.00;5.30;;;16.00;97.40;;;;;;5010162;28;20444;-70
2022/04/10 09:48:24;;;;;;;8.20;5.50;;;16.40;97.90;;;;;;5027714;28;20456;-70
2022/04/10 09:50:52;;;;;;;10.87;5.83;;;16.40;96.00;;;;;;5028463;28;20484;-70
2022/04/10 09:53:18;;;;;;;8.53;6.13;;;16.00;93.20;;;;;;5028263;28;20413;-70
2022/04/10 09:55:44;;;;;;;7.30;6.00;;;15.30;94.20;;;;;;5027809;28;20466;-70
2022/04/10 09:58:13;;;;;;;6.93;5.80;;;15.20;95.80;;;;;;5032848;28;20331;-70
2022/04/10 10:00:44;;;;;;;7.67;5.97;;;14.80;97.20;;;;;;5020209;28;20490;-70
2022/04/10 10:03:10;;;;;;;8.20;5.70;;;14.70;96.80;;;;;;5027562;28;20408;-70
2022/04/10 10:05:37;;;;;;;7.70;5.57;;;14.70;99.10;;;;;;5026219;28;20459;-70
2022/04/10 10:08:04;;;;;;;10.57;6.33;;;14.80;98.10;;;;;;5028454;28;20470;-70
2022/04/10 10:10:31;;;;;;;7.60;5.70;;;15.00;96.30;;;;;;5027875;28;20970;-70
2022/04/10 10:12:59;;;;;;;8.73;5.33;;;15.20;97.60;;;;;;5027539;28;20868;-70
2022/04/10 10:15:25;;;;;;;8.07;5.50;;;15.50;95.80;;;;;;5027637;28;20457;-70
2022/04/10 10:17:51;;;;;;;7.57;6.33;;;15.70;95.70;;;;;;5008749;28;20469;-70
2022/04/10 10:20:19;;;;;;;9.47;6.10;;;16.70;94.40;;;;;;5028019;28;20473;-70
2022/04/10 10:22:45;;;;;;;9.93;7.13;;;18.70;81.30;;;;;;5027562;28;20571;-70
2022/04/10 10:25:19;;;;;;;11.67;7.50;;;19.00;78.20;;;;;;5028147;28;20523;-71
2022/04/10 10:27:48;;;;;;;15.50;7.63;;;17.50;81.60;;;;;;5028235;28;20428;-70
2022/04/10 10:30:22;;;;;;;13.80;7.50;;;16.00;88.90;;;;;;5026730;28;20957;-70
2022/04/10 10:32:52;;;;;;;10.13;6.10;;;15.20;91.00;;;;;;5047290;28;20461;-70
2022/04/10 10:35:32;;;;;;;8.90;5.97;;;14.10;93.00;;;;;;5047698;28;20435;-70
2022/04/10 10:37:58;;;;;;;7.60;6.00;;;13.40;97.10;;;;;;5028130;28;20952;-70
2022/04/10 10:40:23;;;;;;;8.70;6.50;;;12.60;98.70;;;;;;5027806;28;20526;-70
2022/04/10 10:42:51;;;;;;;8.20;6.00;;;11.80;99.90;;;;;;5018563;28;20183;-70
2022/04/10 10:45:41;;;;;;;8.50;6.03;;;11.30;99.90;;;;;;5026998;28;20246;-70
2022/04/10 10:48:35;;;;;;;11.20;7.47;;;11.50;99.90;;;;;;5026143;28;20429;-70
2022/04/10 10:51:10;;;;;;;10.23;6.50;;;12.10;99.90;;;;;;5027486;28;20509;-69
2022/04/10 10:53:45;;;;;;;8.70;6.63;;;12.90;99.90;;;;;;5028211;28;20875;-69
2022/04/10 10:56:17;;;;;;;7.00;5.77;;;14.90;99.90;;;;;;5027149;28;20462;-69
2022/04/10 10:58:43;;;;;;;8.33;6.30;;;17.60;96.70;;;;;;5032505;28;20493;-71
2022/04/10 11:01:14;;;;;;;7.30;6.17;;;19.00;82.80;;;;;;5025915;28;20436;-70
2022/04/10 11:04:06;;;;;;;11.10;7.13;;;20.20;77.90;;;;;;5017272;28;20460;-70
2022/04/10 11:06:42;;;;;;;13.10;8.30;;;21.50;70.20;;;;;;5008761;28;20496;-70
2022/04/10 11:09:29;;;;;;;9.20;7.33;;;20.40;74.70;;;;;;5027431;28;20416;-70
2022/04/10 11:11:57;;;;;;;11.20;7.77;;;21.00;70.40;;;;;;5026780;28;20879;-70
2022/04/10 11:14:38;;;;;;;10.63;7.60;;;22.50;60.10;;;;;;5018286;28;20463;-70
2022/04/10 11:17:21;;;;;;;10.57;7.70;;;22.50;56.10;;;;;;5030948;28;20412;-70
2022/04/10 11:19:54;;;;;;;12.13;7.93;;;21.80;60.10;;;;;;5027985;28;20412;-71
2022/04/10 11:22:53;;;;;;;11.30;8.10;;;20.50;64.30;;;;;;5030219;28;20427;-70
2022/04/10 11:25:28;;;;;;;9.80;8.10;;;18.80;68.50;;;;;;5031047;28;20444;-70
2022/04/10 11:28:03;;;;;;;14.07;10.37;;;17.30;82.00;;;;;;5032870;28;20423;-70
2022/04/10 11:30:31;;;;;;;12.93;9.60;;;16.00;90.70;;;;;;5041950;28;20494;-69
2022/04/10 11:32:57;;;;;;;10.73;8.87;;;15.40;92.20;;;;;;5035538;28;20920;-70
2022/04/10 11:35:30;;;;;;;10.13;6.57;;;15.10;96.70;;;;;;5030788;28;20432;-70
2022/04/10 11:37:57;;;;;;;7.80;6.50;;;15.40;97.20;;;;;;5031156;28;20542;-70
2022/04/10 11:40:31;;;;;;;6.30;5.30;;;16.30;96.80;;;;;;5030788;28;20934;-70
2022/04/10 11:42:59;;;;;;;10.57;7.20;;;18.10;91.50;;;;;;5029162;28;20482;-70
2022/04/10 11:45:28;;;;;;;10.43;7.70;;;19.80;79.00;;;;;;5030764;28;20428;-70
2022/04/10 11:47:54;;;;;;;13.30;8.00;;;21.90;76.70;;;;;;5030263;28;20491;-71
2022/04/10 11:50:21;;;;;;;10.53;7.80;;;24.00;61.30;;;;;;5030644;28;20543;-71
2022/04/10 11:53:06;;;;;;;10.50;7.87;;;25.20;53.40;;;;;;5029832;28;20546;-71
2022/04/10 11:55:39;;;;;;;10.97;7.43;;;25.70;51.10;;;;;;5027967;28;20443;-71
2022/04/10 11:58:19;;;;;;;8.63;7.53;;;26.00;51.20;;;;;;5034604;28;20406;-71
2022/04/10 12:00:52;;;;;;;9.20;6.67;;;26.40;51.50;;;;;;5041717;28;20486;-72
2022/04/10 12:03:18;;;;;;;8.70;6.67;;;27.20;50.60;;;;;;5014905;28;20424;-71
2022/04/10 12:05:44;;;;;;;8.67;6.60;;;28.20;36.60;;;;;;5021698;28;20293;-72
2022/04/10 12:08:10;;;;;;;9.67;6.60;;;27.80;38.80;;;;;;5030142;28;20181;-71
2022/04/10 12:10:35;;;;;;;9.30;6.27;;;26.70;47.20;;;;;;5029735;28;20651;-71
2022/04/10 12:13:02;;;;;;;9.77;6.20;;;26.60;43.80;;;;;;5029119;28;20189;-71
2022/04/10 12:15:28;;;;;;;7.93;5.93;;;26.10;38.40;;;;;;5030189;28;20586;-71
2022/04/10 12:18:10;;;;;;;10.10;6.60;;;25.90;43.10;;;;;;5029561;28;20411;-71
2022/04/10 12:20:40;;;;;;;11.33;6.60;;;25.00;41.20;;;;;;5030409;28;20173;-72
2022/04/10 12:23:25;;;;;;;8.60;6.80;;;24.70;50.50;;;;;;5029265;28;20423;-72
2022/04/10 12:25:57;;;;;;;8.27;6.43;;;23.40;49.20;;;;;;5028763;28;20474;-72
2022/04/10 12:28:23;;;;;;;9.90;6.70;;;22.10;48.20;;;;;;5035021;28;20433;-71
2022/04/10 12:30:49;;;;;;;7.63;6.27;;;20.80;47.10;;;;;;5041257;28;20459;-71
2022/04/10 12:33:17;;;;;;;8.33;6.20;;;20.20;47.70;;;;;;5034121;28;20446;-71
2022/04/10 12:35:44;;;;;;;9.80;6.30;;;20.50;50.70;;;;;;5029987;28;20200;-71
2022/04/10 12:38:13;;;;;;;12.27;6.93;;;21.60;47.80;;;;;;5029869;28;20663;-71
2022/04/10 12:40:41;;;;;;;11.60;7.20;;;21.00;47.20;;;;;;5029573;28;20765;-72
2022/04/10 12:43:07;;;;;;;9.93;6.40;;;19.70;46.20;;;;;;5028450;28;20429;-71
2022/04/10 12:45:37;;;;;;;9.77;5.70;;;18.70;60.40;;;;;;5028530;28;20478;-71
2022/04/10 12:48:24;;;;;;;9.07;6.23;;;17.80;61.20;;;;;;5011470;28;20177;-71
2022/04/10 12:51:08;;;;;;;8.07;5.80;;;17.10;63.30;;;;;;5011887;28;20448;-71
2022/04/10 12:53:34;;;;;;;6.67;4.53;;;16.40;71.30;;;;;;5025932;28;21011;-71
2022/04/10 12:56:00;;;;;;;8.60;5.00;;;15.80;69.00;;;;;;5028115;28;20801;-70
2022/04/10 12:58:29;;;;;;;6.40;4.90;;;15.50;70.80;;;;;;5030498;28;20427;-71